sensor_id;sensor_type;location;lat;lon;timestamp;P1;durP1;ratioP1;P2;durP2;ratioP2
71196;SDS011;58918;51.652;4.864;2024-02-28T00:00:29;3.08;;;1.52;;
71196;SDS011;58918;51.652;4.864;2024-02-28T00:02:57;4.13;;;1.50;;
71196;SDS011;58918;51.652;4.864;2024-02-28T00:05:24;2.97;;;1.20;;
71196;SDS011;58918;51.652;4.864;2024-02-28T00:07:51;4.00;;;1.48;;
71196;SDS011;58918;51.652;4.864;2024-02-28T00:10:19;3.70;;;1.30;;
71196;SDS011;58918;51.652;4.864;2024-02-28T00:12:47;3.60;;;1.40;;
71196;SDS011;58918;51.652;4.864;2024-02-28T00:15:14;3.72;;;1.20;;
71196;SDS011;58918;51.652;4.864;2024-02-28T00:17:42;3.55;;;1.33;;
71196;SDS011;58918;51.652;4.864;2024-02-28T00:20:09;2.95;;;1.20;;
71196;SDS011;58918;51.652;4.864;2024-02-28T00:22:38;3.63;;;1.60;;
71196;SDS011;58918;51.652;4.864;2024-02-28T00:25:05;3.58;;;1.80;;
71196;SDS011;58918;51.652;4.864;2024-02-28T00:27:33;3.00;;;1.17;;
71196;SDS011;58918;51.652;4.864;2024-02-28T00:30:01;3.95;;;1.40;;
71196;SDS011;58918;51.652;4.864;2024-02-28T00:32:28;3.25;;;1.42;;
71196;SDS011;58918;51.652;4.864;2024-02-28T00:34:55;3.78;;;1.40;;
71196;SDS011;58918;51.652;4.864;2024-02-28T00:37:22;4.90;;;1.20;;
71196;SDS011;58918;51.652;4.864;2024-02-28T00:39:50;3.10;;;1.30;;
71196;SDS011;58918;51.652;4.864;2024-02-28T00:42:17;2.85;;;1.02;;
71196;SDS011;58918;51.652;4.864;2024-02-28T00:44:44;2.65;;;1.13;;
71196;SDS011;58918;51.652;4.864;2024-02-28T00:47:11;3.50;;;1.60;;
71196;SDS011;58918;51.652;4.864;2024-02-28T00:49:39;3.40;;;1.27;;
71196;SDS011;58918;51.652;4.864;2024-02-28T00:52:06;3.40;;;1.20;;
71196;SDS011;58918;51.652;4.864;2024-02-28T00:54:33;4.18;;;1.70;;
71196;SDS011;58918;51.652;4.864;2024-02-28T00:57:00;2.90;;;1.20;;
71196;SDS011;58918;51.652;4.864;2024-02-28T00:59:27;3.28;;;1.27;;
71196;SDS011;58918;51.652;4.864;2024-02-28T01:01:54;3.13;;;1.27;;
71196;SDS011;58918;51.652;4.864;2024-02-28T01:04:22;3.97;;;1.40;;
71196;SDS011;58918;51.652;4.864;2024-02-28T01:06:49;3.63;;;1.48;;
71196;SDS011;58918;51.652;4.864;2024-02-28T01:09:16;3.33;;;1.25;;
71196;SDS011;58918;51.652;4.864;2024-02-28T01:11:44;3.03;;;1.20;;
71196;SDS011;58918;51.652;4.864;2024-02-28T01:14:11;3.95;;;1.27;;
71196;SDS011;58918;51.652;4.864;2024-02-28T01:16:38;3.63;;;1.35;;
71196;SDS011;58918;51.652;4.864;2024-02-28T01:19:06;3.47;;;1.40;;
71196;SDS011;58918;51.652;4.864;2024-02-28T01:21:33;3.28;;;1.50;;
71196;SDS011;58918;51.652;4.864;2024-02-28T01:24:00;3.70;;;1.42;;
71196;SDS011;58918;51.652;4.864;2024-02-28T01:26:27;3.83;;;1.48;;
71196;SDS011;58918;51.652;4.864;2024-02-28T01:28:54;3.90;;;1.42;;
71196;SDS011;58918;51.652;4.864;2024-02-28T01:31:21;2.70;;;1.00;;
71196;SDS011;58918;51.652;4.864;2024-02-28T01:33:49;3.15;;;1.10;;
71196;SDS011;58918;51.652;4.864;2024-02-28T01:36:16;3.53;;;1.40;;
71196;SDS011;58918;51.652;4.864;2024-02-28T01:38:43;3.00;;;1.30;;
71196;SDS011;58918;51.652;4.864;2024-02-28T01:41:12;3.55;;;1.13;;
71196;SDS011;58918;51.652;4.864;2024-02-28T01:43:39;3.60;;;1.15;;
71196;SDS011;58918;51.652;4.864;2024-02-28T01:46:11;3.10;;;1.10;;
71196;SDS011;58918;51.652;4.864;2024-02-28T01:48:43;3.00;;;1.17;;
71196;SDS011;58918;51.652;4.864;2024-02-28T01:51:10;3.38;;;1.27;;
71196;SDS011;58918;51.652;4.864;2024-02-28T01:53:37;3.20;;;1.20;;
71196;SDS011;58918;51.652;4.864;2024-02-28T01:56:04;3.42;;;1.33;;
71196;SDS011;58918;51.652;4.864;2024-02-28T01:58:32;4.47;;;1.40;;
71196;SDS011;58918;51.652;4.864;2024-02-28T02:01:00;2.80;;;1.10;;
71196;SDS011;58918;51.652;4.864;2024-02-28T02:03:30;3.08;;;1.38;;
71196;SDS011;58918;51.652;4.864;2024-02-28T02:05:57;3.95;;;1.20;;
71196;SDS011;58918;51.652;4.864;2024-02-28T02:08:24;3.10;;;1.20;;
71196;SDS011;58918;51.652;4.864;2024-02-28T02:10:51;3.10;;;1.30;;
71196;SDS011;58918;51.652;4.864;2024-02-28T02:13:18;3.60;;;1.48;;
71196;SDS011;58918;51.652;4.864;2024-02-28T02:15:45;2.70;;;0.90;;
71196;SDS011;58918;51.652;4.864;2024-02-28T02:18:13;3.28;;;1.20;;
71196;SDS011;58918;51.652;4.864;2024-02-28T02:20:41;3.03;;;1.30;;
71196;SDS011;58918;51.652;4.864;2024-02-28T02:23:10;3.78;;;1.52;;
71196;SDS011;58918;51.652;4.864;2024-02-28T02:25:45;3.08;;;1.35;;
71196;SDS011;58918;51.652;4.864;2024-02-28T02:28:13;4.55;;;1.20;;
71196;SDS011;58918;51.652;4.864;2024-02-28T02:30:41;2.95;;;1.20;;
71196;SDS011;58918;51.652;4.864;2024-02-28T02:33:08;3.42;;;1.20;;
71196;SDS011;58918;51.652;4.864;2024-02-28T02:35:36;3.10;;;1.25;;
71196;SDS011;58918;51.652;4.864;2024-02-28T02:38:03;2.92;;;1.25;;
71196;SDS011;58918;51.652;4.864;2024-02-28T02:40:30;4.80;;;1.40;;
71196;SDS011;58918;51.652;4.864;2024-02-28T02:42:57;3.38;;;1.08;;
71196;SDS011;58918;51.652;4.864;2024-02-28T02:45:25;2.97;;;1.33;;
71196;SDS011;58918;51.652;4.864;2024-02-28T02:47:52;3.63;;;1.33;;
71196;SDS011;58918;51.652;4.864;2024-02-28T02:50:19;4.72;;;1.30;;
71196;SDS011;58918;51.652;4.864;2024-02-28T02:52:46;3.88;;;1.30;;
71196;SDS011;58918;51.652;4.864;2024-02-28T02:55:13;2.90;;;1.20;;
71196;SDS011;58918;51.652;4.864;2024-02-28T02:57:41;3.40;;;1.02;;
71196;SDS011;58918;51.652;4.864;2024-02-28T03:00:08;3.05;;;1.10;;
71196;SDS011;58918;51.652;4.864;2024-02-28T03:02:36;2.40;;;1.10;;
71196;SDS011;58918;51.652;4.864;2024-02-28T03:05:05;3.42;;;1.25;;
71196;SDS011;58918;51.652;4.864;2024-02-28T03:07:33;3.20;;;1.30;;
71196;SDS011;58918;51.652;4.864;2024-02-28T03:10:00;2.97;;;1.02;;
71196;SDS011;58918;51.652;4.864;2024-02-28T03:12:28;3.70;;;1.27;;
71196;SDS011;58918;51.652;4.864;2024-02-28T03:14:55;3.42;;;1.20;;
71196;SDS011;58918;51.652;4.864;2024-02-28T03:17:23;3.05;;;1.25;;
71196;SDS011;58918;51.652;4.864;2024-02-28T03:19:50;3.13;;;1.27;;
71196;SDS011;58918;51.652;4.864;2024-02-28T03:22:17;3.30;;;1.25;;
71196;SDS011;58918;51.652;4.864;2024-02-28T03:24:44;2.85;;;1.10;;
71196;SDS011;58918;51.652;4.864;2024-02-28T03:27:12;3.20;;;1.48;;
71196;SDS011;58918;51.652;4.864;2024-02-28T03:29:39;3.03;;;1.10;;
71196;SDS011;58918;51.652;4.864;2024-02-28T03:32:06;3.50;;;1.10;;
71196;SDS011;58918;51.652;4.864;2024-02-28T03:34:33;2.83;;;1.00;;
71196;SDS011;58918;51.652;4.864;2024-02-28T03:37:01;3.20;;;1.40;;
71196;SDS011;58918;51.652;4.864;2024-02-28T03:39:28;2.33;;;1.05;;
71196;SDS011;58918;51.652;4.864;2024-02-28T03:41:55;4.72;;;1.30;;
71196;SDS011;58918;51.652;4.864;2024-02-28T03:44:23;3.53;;;1.20;;
71196;SDS011;58918;51.652;4.864;2024-02-28T03:49:19;3.50;;;0.98;;
71196;SDS011;58918;51.652;4.864;2024-02-28T03:51:46;2.58;;;1.00;;
71196;SDS011;58918;51.652;4.864;2024-02-28T03:54:13;2.75;;;1.15;;
71196;SDS011;58918;51.652;4.864;2024-02-28T03:56:40;3.00;;;1.30;;
71196;SDS011;58918;51.652;4.864;2024-02-28T03:59:07;3.40;;;1.23;;
71196;SDS011;58918;51.652;4.864;2024-02-28T04:01:35;3.15;;;1.20;;
71196;SDS011;58918;51.652;4.864;2024-02-28T04:04:02;3.58;;;1.27;;
71196;SDS011;58918;51.652;4.864;2024-02-28T04:06:29;3.17;;;1.20;;
71196;SDS011;58918;51.652;4.864;2024-02-28T04:08:57;3.10;;;1.10;;
71196;SDS011;58918;51.652;4.864;2024-02-28T04:11:24;2.95;;;0.93;;
71196;SDS011;58918;51.652;4.864;2024-02-28T04:13:51;3.05;;;1.02;;
71196;SDS011;58918;51.652;4.864;2024-02-28T04:16:18;3.25;;;1.10;;
71196;SDS011;58918;51.652;4.864;2024-02-28T04:18:45;2.83;;;1.00;;
71196;SDS011;58918;51.652;4.864;2024-02-28T04:21:13;2.50;;;0.90;;
71196;SDS011;58918;51.652;4.864;2024-02-28T04:23:40;2.75;;;1.00;;
71196;SDS011;58918;51.652;4.864;2024-02-28T04:26:08;4.15;;;1.33;;
71196;SDS011;58918;51.652;4.864;2024-02-28T04:28:35;2.72;;;1.20;;
71196;SDS011;58918;51.652;4.864;2024-02-28T04:31:03;2.55;;;1.00;;
71196;SDS011;58918;51.652;4.864;2024-02-28T04:33:31;2.35;;;0.80;;
71196;SDS011;58918;51.652;4.864;2024-02-28T04:35:58;2.55;;;0.82;;
71196;SDS011;58918;51.652;4.864;2024-02-28T04:38:25;3.50;;;1.20;;
71196;SDS011;58918;51.652;4.864;2024-02-28T04:40:52;3.20;;;1.25;;
71196;SDS011;58918;51.652;4.864;2024-02-28T04:43:20;2.70;;;0.95;;
71196;SDS011;58918;51.652;4.864;2024-02-28T04:45:47;3.63;;;1.20;;
71196;SDS011;58918;51.652;4.864;2024-02-28T04:48:14;3.20;;;1.10;;
71196;SDS011;58918;51.652;4.864;2024-02-28T04:50:42;2.55;;;0.88;;
71196;SDS011;58918;51.652;4.864;2024-02-28T04:53:09;3.33;;;1.20;;
71196;SDS011;58918;51.652;4.864;2024-02-28T04:55:36;3.25;;;1.15;;
71196;SDS011;58918;51.652;4.864;2024-02-28T04:58:03;2.70;;;1.00;;
71196;SDS011;58918;51.652;4.864;2024-02-28T05:00:30;3.17;;;1.00;;
71196;SDS011;58918;51.652;4.864;2024-02-28T05:02:58;3.38;;;1.10;;
71196;SDS011;58918;51.652;4.864;2024-02-28T05:05:25;2.85;;;1.13;;
71196;SDS011;58918;51.652;4.864;2024-02-28T05:07:52;3.38;;;1.30;;
71196;SDS011;58918;51.652;4.864;2024-02-28T05:10:20;2.22;;;1.00;;
71196;SDS011;58918;51.652;4.864;2024-02-28T05:12:47;3.47;;;1.30;;
71196;SDS011;58918;51.652;4.864;2024-02-28T05:15:14;3.40;;;1.17;;
71196;SDS011;58918;51.652;4.864;2024-02-28T05:17:42;3.20;;;1.38;;
71196;SDS011;58918;51.652;4.864;2024-02-28T05:20:10;4.30;;;1.13;;
71196;SDS011;58918;51.652;4.864;2024-02-28T05:22:37;3.20;;;1.17;;
71196;SDS011;58918;51.652;4.864;2024-02-28T05:25:06;3.55;;;1.30;;
71196;SDS011;58918;51.652;4.864;2024-02-28T05:27:34;2.70;;;1.08;;
71196;SDS011;58918;51.652;4.864;2024-02-28T05:30:01;3.05;;;1.27;;
71196;SDS011;58918;51.652;4.864;2024-02-28T05:32:32;3.72;;;1.35;;
71196;SDS011;58918;51.652;4.864;2024-02-28T05:34:59;2.80;;;1.10;;
71196;SDS011;58918;51.652;4.864;2024-02-28T05:37:27;3.35;;;1.50;;
71196;SDS011;58918;51.652;4.864;2024-02-28T05:39:54;3.42;;;1.20;;
71196;SDS011;58918;51.652;4.864;2024-02-28T05:42:21;2.40;;;1.00;;
71196;SDS011;58918;51.652;4.864;2024-02-28T05:44:49;3.42;;;1.10;;
71196;SDS011;58918;51.652;4.864;2024-02-28T05:47:16;2.90;;;0.90;;
71196;SDS011;58918;51.652;4.864;2024-02-28T05:49:47;3.35;;;1.30;;
71196;SDS011;58918;51.652;4.864;2024-02-28T05:52:14;4.10;;;1.40;;
71196;SDS011;58918;51.652;4.864;2024-02-28T05:54:41;2.67;;;1.00;;
71196;SDS011;58918;51.652;4.864;2024-02-28T05:57:09;2.85;;;0.98;;
71196;SDS011;58918;51.652;4.864;2024-02-28T05:59:36;3.20;;;1.10;;
71196;SDS011;58918;51.652;4.864;2024-02-28T06:02:03;3.13;;;1.10;;
71196;SDS011;58918;51.652;4.864;2024-02-28T06:04:31;2.92;;;1.08;;
71196;SDS011;58918;51.652;4.864;2024-02-28T06:06:58;3.10;;;1.10;;
71196;SDS011;58918;51.652;4.864;2024-02-28T06:09:25;3.63;;;1.33;;
71196;SDS011;58918;51.652;4.864;2024-02-28T06:11:56;3.22;;;1.05;;
71196;SDS011;58918;51.652;4.864;2024-02-28T06:14:26;3.10;;;1.15;;
71196;SDS011;58918;51.652;4.864;2024-02-28T06:16:53;2.20;;;0.88;;
71196;SDS011;58918;51.652;4.864;2024-02-28T06:19:20;4.32;;;1.38;;
71196;SDS011;58918;51.652;4.864;2024-02-28T06:21:48;3.45;;;1.30;;
71196;SDS011;58918;51.652;4.864;2024-02-28T06:24:16;3.63;;;1.27;;
71196;SDS011;58918;51.652;4.864;2024-02-28T06:26:43;3.63;;;1.48;;
71196;SDS011;58918;51.652;4.864;2024-02-28T06:29:18;3.90;;;1.30;;
71196;SDS011;58918;51.652;4.864;2024-02-28T06:31:49;3.28;;;1.15;;
71196;SDS011;58918;51.652;4.864;2024-02-28T06:34:17;3.67;;;1.35;;
71196;SDS011;58918;51.652;4.864;2024-02-28T06:36:45;3.17;;;1.00;;
71196;SDS011;58918;51.652;4.864;2024-02-28T06:39:12;3.20;;;1.20;;
71196;SDS011;58918;51.652;4.864;2024-02-28T06:41:39;3.55;;;1.50;;
71196;SDS011;58918;51.652;4.864;2024-02-28T06:44:06;4.07;;;1.20;;
71196;SDS011;58918;51.652;4.864;2024-02-28T06:46:34;2.80;;;1.10;;
71196;SDS011;58918;51.652;4.864;2024-02-28T06:49:01;3.47;;;1.50;;
71196;SDS011;58918;51.652;4.864;2024-02-28T06:51:28;4.55;;;1.23;;
71196;SDS011;58918;51.652;4.864;2024-02-28T06:53:55;3.28;;;1.27;;
71196;SDS011;58918;51.652;4.864;2024-02-28T06:56:22;5.25;;;1.40;;
71196;SDS011;58918;51.652;4.864;2024-02-28T06:58:50;3.17;;;1.23;;
71196;SDS011;58918;51.652;4.864;2024-02-28T07:01:17;3.65;;;1.45;;
71196;SDS011;58918;51.652;4.864;2024-02-28T07:03:45;3.38;;;1.40;;
71196;SDS011;58918;51.652;4.864;2024-02-28T07:06:12;3.10;;;1.40;;
71196;SDS011;58918;51.652;4.864;2024-02-28T07:08:39;4.60;;;1.48;;
71196;SDS011;58918;51.652;4.864;2024-02-28T07:11:12;3.10;;;1.17;;
71196;SDS011;58918;51.652;4.864;2024-02-28T07:13:40;3.70;;;1.30;;
71196;SDS011;58918;51.652;4.864;2024-02-28T07:16:07;4.00;;;1.63;;
71196;SDS011;58918;51.652;4.864;2024-02-28T07:18:34;4.53;;;1.35;;
71196;SDS011;58918;51.652;4.864;2024-02-28T07:21:02;2.75;;;1.10;;
71196;SDS011;58918;51.652;4.864;2024-02-28T07:23:29;4.10;;;1.20;;
71196;SDS011;58918;51.652;4.864;2024-02-28T07:25:56;3.30;;;1.38;;
71196;SDS011;58918;51.652;4.864;2024-02-28T07:28:34;3.78;;;1.50;;
71196;SDS011;58918;51.652;4.864;2024-02-28T07:31:01;4.85;;;1.70;;
71196;SDS011;58918;51.652;4.864;2024-02-28T07:33:28;3.53;;;1.67;;
71196;SDS011;58918;51.652;4.864;2024-02-28T07:35:55;3.92;;;1.60;;
71196;SDS011;58918;51.652;4.864;2024-02-28T07:38:27;3.47;;;1.40;;
71196;SDS011;58918;51.652;4.864;2024-02-28T07:40:54;3.45;;;1.38;;
71196;SDS011;58918;51.652;4.864;2024-02-28T07:43:21;3.15;;;1.40;;
71196;SDS011;58918;51.652;4.864;2024-02-28T07:45:48;4.20;;;1.42;;
71196;SDS011;58918;51.652;4.864;2024-02-28T07:48:16;4.30;;;1.70;;
71196;SDS011;58918;51.652;4.864;2024-02-28T07:50:44;3.03;;;1.30;;
71196;SDS011;58918;51.652;4.864;2024-02-28T07:53:12;3.15;;;1.30;;
71196;SDS011;58918;51.652;4.864;2024-02-28T07:55:39;3.92;;;1.30;;
71196;SDS011;58918;51.652;4.864;2024-02-28T07:58:07;3.33;;;1.40;;
71196;SDS011;58918;51.652;4.864;2024-02-28T08:00:35;3.20;;;1.40;;
71196;SDS011;58918;51.652;4.864;2024-02-28T08:03:02;3.75;;;1.27;;
71196;SDS011;58918;51.652;4.864;2024-02-28T08:05:30;3.40;;;1.40;;
71196;SDS011;58918;51.652;4.864;2024-02-28T08:07:59;3.70;;;1.48;;
71196;SDS011;58918;51.652;4.864;2024-02-28T08:10:27;4.13;;;1.50;;
71196;SDS011;58918;51.652;4.864;2024-02-28T08:12:54;3.80;;;1.52;;
71196;SDS011;58918;51.652;4.864;2024-02-28T08:15:22;4.32;;;1.60;;
71196;SDS011;58918;51.652;4.864;2024-02-28T08:17:49;4.35;;;1.55;;
71196;SDS011;58918;51.652;4.864;2024-02-28T08:20:16;4.55;;;1.65;;
71196;SDS011;58918;51.652;4.864;2024-02-28T08:22:43;4.38;;;1.55;;
71196;SDS011;58918;51.652;4.864;2024-02-28T08:25:10;4.70;;;1.85;;
71196;SDS011;58918;51.652;4.864;2024-02-28T08:27:38;4.93;;;1.65;;
71196;SDS011;58918;51.652;4.864;2024-02-28T08:30:05;3.15;;;1.40;;
71196;SDS011;58918;51.652;4.864;2024-02-28T08:32:33;4.53;;;1.70;;
71196;SDS011;58918;51.652;4.864;2024-02-28T08:35:00;3.58;;;1.50;;
71196;SDS011;58918;51.652;4.864;2024-02-28T08:37:27;3.45;;;1.40;;
71196;SDS011;58918;51.652;4.864;2024-02-28T08:39:55;3.58;;;1.30;;
71196;SDS011;58918;51.652;4.864;2024-02-28T08:42:25;3.13;;;1.23;;
71196;SDS011;58918;51.652;4.864;2024-02-28T08:44:55;3.78;;;1.60;;
71196;SDS011;58918;51.652;4.864;2024-02-28T08:47:23;3.80;;;1.50;;
71196;SDS011;58918;51.652;4.864;2024-02-28T08:49:50;3.60;;;1.45;;
71196;SDS011;58918;51.652;4.864;2024-02-28T08:52:18;3.80;;;1.30;;
71196;SDS011;58918;51.652;4.864;2024-02-28T08:54:45;3.38;;;1.58;;
71196;SDS011;58918;51.652;4.864;2024-02-28T08:57:12;3.50;;;1.50;;
71196;SDS011;58918;51.652;4.864;2024-02-28T08:59:39;3.80;;;1.55;;
71196;SDS011;58918;51.652;4.864;2024-02-28T09:02:07;3.80;;;1.50;;
71196;SDS011;58918;51.652;4.864;2024-02-28T09:04:34;3.45;;;1.35;;
71196;SDS011;58918;51.652;4.864;2024-02-28T09:07:02;3.55;;;1.30;;
71196;SDS011;58918;51.652;4.864;2024-02-28T09:09:30;3.28;;;1.50;;
71196;SDS011;58918;51.652;4.864;2024-02-28T09:12:00;3.35;;;1.42;;
71196;SDS011;58918;51.652;4.864;2024-02-28T09:14:29;3.13;;;1.50;;
71196;SDS011;58918;51.652;4.864;2024-02-28T09:16:57;3.58;;;1.48;;
71196;SDS011;58918;51.652;4.864;2024-02-28T09:19:30;5.00;;;1.60;;
71196;SDS011;58918;51.652;4.864;2024-02-28T09:21:57;4.03;;;1.42;;
71196;SDS011;58918;51.652;4.864;2024-02-28T09:24:25;4.68;;;1.60;;
71196;SDS011;58918;51.652;4.864;2024-02-28T09:26:53;3.45;;;1.42;;
71196;SDS011;58918;51.652;4.864;2024-02-28T09:29:22;4.78;;;1.70;;
71196;SDS011;58918;51.652;4.864;2024-02-28T09:31:49;3.83;;;1.58;;
71196;SDS011;58918;51.652;4.864;2024-02-28T09:34:16;4.15;;;1.73;;
71196;SDS011;58918;51.652;4.864;2024-02-28T09:36:44;3.40;;;1.55;;
71196;SDS011;58918;51.652;4.864;2024-02-28T09:39:15;3.22;;;1.45;;
71196;SDS011;58918;51.652;4.864;2024-02-28T09:41:43;4.18;;;1.52;;
71196;SDS011;58918;51.652;4.864;2024-02-28T09:44:12;3.55;;;1.50;;
71196;SDS011;58918;51.652;4.864;2024-02-28T09:46:41;3.30;;;1.30;;
71196;SDS011;58918;51.652;4.864;2024-02-28T09:49:08;4.72;;;1.60;;
71196;SDS011;58918;51.652;4.864;2024-02-28T09:51:36;4.72;;;1.50;;
71196;SDS011;58918;51.652;4.864;2024-02-28T09:54:03;4.18;;;1.73;;
71196;SDS011;58918;51.652;4.864;2024-02-28T09:56:34;3.30;;;1.38;;
71196;SDS011;58918;51.652;4.864;2024-02-28T09:59:01;3.50;;;1.48;;
71196;SDS011;58918;51.652;4.864;2024-02-28T10:01:29;4.30;;;1.70;;
71196;SDS011;58918;51.652;4.864;2024-02-28T10:03:57;4.78;;;1.60;;
71196;SDS011;58918;51.652;4.864;2024-02-28T10:06:28;4.65;;;1.60;;
71196;SDS011;58918;51.652;4.864;2024-02-28T10:08:55;3.25;;;1.40;;
71196;SDS011;58918;51.652;4.864;2024-02-28T10:11:23;3.38;;;1.58;;
71196;SDS011;58918;51.652;4.864;2024-02-28T10:13:52;3.42;;;1.42;;
71196;SDS011;58918;51.652;4.864;2024-02-28T10:16:21;3.97;;;1.65;;
71196;SDS011;58918;51.652;4.864;2024-02-28T10:18:50;5.35;;;1.60;;
71196;SDS011;58918;51.652;4.864;2024-02-28T10:21:18;3.25;;;1.33;;
71196;SDS011;58918;51.652;4.864;2024-02-28T10:23:45;3.47;;;1.73;;
71196;SDS011;58918;51.652;4.864;2024-02-28T10:26:12;3.33;;;1.40;;
71196;SDS011;58918;51.652;4.864;2024-02-28T10:28:40;4.22;;;1.30;;
71196;SDS011;58918;51.652;4.864;2024-02-28T10:31:09;3.03;;;1.40;;
71196;SDS011;58918;51.652;4.864;2024-02-28T10:33:37;3.30;;;1.52;;
71196;SDS011;58918;51.652;4.864;2024-02-28T10:36:04;4.07;;;1.42;;
71196;SDS011;58918;51.652;4.864;2024-02-28T10:38:32;4.80;;;1.52;;
71196;SDS011;58918;51.652;4.864;2024-02-28T10:41:00;3.97;;;1.50;;
71196;SDS011;58918;51.652;4.864;2024-02-28T10:43:28;3.90;;;1.30;;
71196;SDS011;58918;51.652;4.864;2024-02-28T10:45:57;3.58;;;1.65;;
71196;SDS011;58918;51.652;4.864;2024-02-28T10:48:29;3.20;;;1.30;;
71196;SDS011;58918;51.652;4.864;2024-02-28T10:50:57;3.92;;;1.60;;
71196;SDS011;58918;51.652;4.864;2024-02-28T10:53:37;3.83;;;1.60;;
71196;SDS011;58918;51.652;4.864;2024-02-28T10:56:05;3.50;;;1.60;;
71196;SDS011;58918;51.652;4.864;2024-02-28T10:58:36;3.78;;;1.50;;
71196;SDS011;58918;51.652;4.864;2024-02-28T11:01:04;3.35;;;1.38;;
71196;SDS011;58918;51.652;4.864;2024-02-28T11:03:31;3.38;;;1.40;;
71196;SDS011;58918;51.652;4.864;2024-02-28T11:05:59;3.85;;;1.58;;
71196;SDS011;58918;51.652;4.864;2024-02-28T11:08:27;3.90;;;1.52;;
71196;SDS011;58918;51.652;4.864;2024-02-28T11:11:04;3.55;;;1.60;;
71196;SDS011;58918;51.652;4.864;2024-02-28T11:13:31;4.57;;;1.80;;
71196;SDS011;58918;51.652;4.864;2024-02-28T11:16:08;3.67;;;1.60;;
71196;SDS011;58918;51.652;4.864;2024-02-28T11:18:36;4.25;;;1.77;;
71196;SDS011;58918;51.652;4.864;2024-02-28T11:21:15;5.05;;;1.40;;
71196;SDS011;58918;51.652;4.864;2024-02-28T11:23:46;3.95;;;1.70;;
71196;SDS011;58918;51.652;4.864;2024-02-28T11:26:17;4.22;;;1.88;;
71196;SDS011;58918;51.652;4.864;2024-02-28T11:28:45;5.00;;;1.77;;
71196;SDS011;58918;51.652;4.864;2024-02-28T11:31:13;3.80;;;1.60;;
71196;SDS011;58918;51.652;4.864;2024-02-28T11:33:42;3.97;;;1.80;;
71196;SDS011;58918;51.652;4.864;2024-02-28T11:36:12;4.38;;;1.80;;
71196;SDS011;58918;51.652;4.864;2024-02-28T11:38:40;5.22;;;2.00;;
71196;SDS011;58918;51.652;4.864;2024-02-28T11:41:08;3.78;;;1.65;;
71196;SDS011;58918;51.652;4.864;2024-02-28T11:43:35;4.28;;;1.88;;
71196;SDS011;58918;51.652;4.864;2024-02-28T11:46:17;4.28;;;1.40;;
71196;SDS011;58918;51.652;4.864;2024-02-28T11:48:45;5.18;;;1.80;;
71196;SDS011;58918;51.652;4.864;2024-02-28T11:51:12;4.03;;;1.70;;
71196;SDS011;58918;51.652;4.864;2024-02-28T11:53:40;4.38;;;1.85;;
71196;SDS011;58918;51.652;4.864;2024-02-28T11:56:07;4.00;;;1.30;;
71196;SDS011;58918;51.652;4.864;2024-02-28T11:58:34;3.90;;;1.80;;
71196;SDS011;58918;51.652;4.864;2024-02-28T12:01:02;3.85;;;1.63;;
71196;SDS011;58918;51.652;4.864;2024-02-28T12:03:29;4.00;;;1.60;;
71196;SDS011;58918;51.652;4.864;2024-02-28T12:05:57;3.60;;;1.50;;
71196;SDS011;58918;51.652;4.864;2024-02-28T12:08:25;4.70;;;1.73;;
71196;SDS011;58918;51.652;4.864;2024-02-28T12:11:05;5.35;;;1.65;;
71196;SDS011;58918;51.652;4.864;2024-02-28T12:13:32;3.65;;;1.75;;
71196;SDS011;58918;51.652;4.864;2024-02-28T12:16:00;3.80;;;1.52;;
71196;SDS011;58918;51.652;4.864;2024-02-28T12:18:27;3.63;;;1.45;;
71196;SDS011;58918;51.652;4.864;2024-02-28T12:20:55;4.35;;;1.85;;
71196;SDS011;58918;51.652;4.864;2024-02-28T12:23:22;3.88;;;1.38;;
71196;SDS011;58918;51.652;4.864;2024-02-28T12:25:52;4.95;;;1.65;;
71196;SDS011;58918;51.652;4.864;2024-02-28T12:28:19;5.30;;;1.85;;
71196;SDS011;58918;51.652;4.864;2024-02-28T12:30:46;3.55;;;1.55;;
71196;SDS011;58918;51.652;4.864;2024-02-28T12:33:14;4.00;;;1.45;;
71196;SDS011;58918;51.652;4.864;2024-02-28T12:35:41;4.18;;;1.77;;
71196;SDS011;58918;51.652;4.864;2024-02-28T12:38:09;4.47;;;1.80;;
71196;SDS011;58918;51.652;4.864;2024-02-28T12:40:36;3.83;;;2.00;;
71196;SDS011;58918;51.652;4.864;2024-02-28T12:43:03;4.85;;;1.80;;
71196;SDS011;58918;51.652;4.864;2024-02-28T12:45:30;5.45;;;1.95;;
71196;SDS011;58918;51.652;4.864;2024-02-28T12:47:58;4.30;;;1.77;;
71196;SDS011;58918;51.652;4.864;2024-02-28T12:50:27;3.72;;;1.73;;
71196;SDS011;58918;51.652;4.864;2024-02-28T12:52:55;4.40;;;2.33;;
71196;SDS011;58918;51.652;4.864;2024-02-28T12:55:22;3.38;;;1.60;;
71196;SDS011;58918;51.652;4.864;2024-02-28T12:57:49;4.28;;;1.70;;
71196;SDS011;58918;51.652;4.864;2024-02-28T13:00:17;4.65;;;1.55;;
71196;SDS011;58918;51.652;4.864;2024-02-28T13:02:44;4.70;;;1.90;;
71196;SDS011;58918;51.652;4.864;2024-02-28T13:05:12;5.10;;;1.90;;
71196;SDS011;58918;51.652;4.864;2024-02-28T13:07:39;5.30;;;1.70;;
71196;SDS011;58918;51.652;4.864;2024-02-28T13:10:06;5.38;;;1.63;;
71196;SDS011;58918;51.652;4.864;2024-02-28T13:12:35;4.38;;;1.75;;
71196;SDS011;58918;51.652;4.864;2024-02-28T13:15:03;4.07;;;1.77;;
71196;SDS011;58918;51.652;4.864;2024-02-28T13:17:31;3.55;;;1.52;;
71196;SDS011;58918;51.652;4.864;2024-02-28T13:20:01;4.22;;;1.70;;
71196;SDS011;58918;51.652;4.864;2024-02-28T13:22:29;4.20;;;1.90;;
71196;SDS011;58918;51.652;4.864;2024-02-28T13:24:57;3.53;;;1.52;;
71196;SDS011;58918;51.652;4.864;2024-02-28T13:27:24;5.07;;;1.92;;
71196;SDS011;58918;51.652;4.864;2024-02-28T13:29:51;4.63;;;2.15;;
71196;SDS011;58918;51.652;4.864;2024-02-28T13:32:19;3.63;;;1.48;;
71196;SDS011;58918;51.652;4.864;2024-02-28T13:34:46;4.10;;;1.67;;
71196;SDS011;58918;51.652;4.864;2024-02-28T13:37:15;4.50;;;1.65;;
71196;SDS011;58918;51.652;4.864;2024-02-28T13:39:43;5.40;;;2.03;;
71196;SDS011;58918;51.652;4.864;2024-02-28T13:42:10;5.00;;;2.03;;
71196;SDS011;58918;51.652;4.864;2024-02-28T13:44:37;5.40;;;1.80;;
71196;SDS011;58918;51.652;4.864;2024-02-28T13:47:07;4.45;;;1.85;;
71196;SDS011;58918;51.652;4.864;2024-02-28T13:49:34;5.07;;;1.70;;
71196;SDS011;58918;51.652;4.864;2024-02-28T13:52:01;5.05;;;2.00;;
71196;SDS011;58918;51.652;4.864;2024-02-28T13:54:28;4.20;;;1.80;;
71196;SDS011;58918;51.652;4.864;2024-02-28T13:56:56;4.63;;;1.83;;
71196;SDS011;58918;51.652;4.864;2024-02-28T13:59:24;4.60;;;1.60;;
71196;SDS011;58918;51.652;4.864;2024-02-28T14:01:51;6.22;;;2.20;;
71196;SDS011;58918;51.652;4.864;2024-02-28T14:04:19;3.90;;;1.65;;
71196;SDS011;58918;51.652;4.864;2024-02-28T14:06:46;4.68;;;1.70;;
71196;SDS011;58918;51.652;4.864;2024-02-28T14:09:14;4.03;;;1.75;;
71196;SDS011;58918;51.652;4.864;2024-02-28T14:11:41;5.43;;;2.08;;
71196;SDS011;58918;51.652;4.864;2024-02-28T14:14:10;5.35;;;1.80;;
71196;SDS011;58918;51.652;4.864;2024-02-28T14:16:38;3.90;;;1.80;;
71196;SDS011;58918;51.652;4.864;2024-02-28T14:19:05;5.78;;;1.90;;
71196;SDS011;58918;51.652;4.864;2024-02-28T14:21:32;5.18;;;1.77;;
71196;SDS011;58918;51.652;4.864;2024-02-28T14:23:59;3.92;;;1.63;;
71196;SDS011;58918;51.652;4.864;2024-02-28T14:26:27;4.43;;;1.77;;
71196;SDS011;58918;51.652;4.864;2024-02-28T14:28:54;4.65;;;2.00;;
71196;SDS011;58918;51.652;4.864;2024-02-28T14:31:22;4.88;;;2.15;;
71196;SDS011;58918;51.652;4.864;2024-02-28T14:33:50;4.65;;;1.75;;
71196;SDS011;58918;51.652;4.864;2024-02-28T14:36:18;4.38;;;1.92;;
71196;SDS011;58918;51.652;4.864;2024-02-28T14:38:47;4.63;;;1.90;;
71196;SDS011;58918;51.652;4.864;2024-02-28T14:41:14;4.20;;;2.05;;
71196;SDS011;58918;51.652;4.864;2024-02-28T14:43:41;3.95;;;1.70;;
71196;SDS011;58918;51.652;4.864;2024-02-28T14:46:08;4.88;;;1.60;;
71196;SDS011;58918;51.652;4.864;2024-02-28T14:48:36;4.32;;;1.77;;
71196;SDS011;58918;51.652;4.864;2024-02-28T14:51:04;3.78;;;1.63;;
71196;SDS011;58918;51.652;4.864;2024-02-28T14:53:32;4.38;;;1.80;;